Airfield :
LOGIN :

Register | Disclaimer

   EN    FR    IT 

 










Legend :    VFR   Marginal VFR   IFR   Intensive IFR   Very Intensive IFR
Visi :
Ceiling :
>= 8 km
>= 3000ft
5 to 8 km
1000 to 3000 ft
1500m to 5 km
500 to 1000 ft
800 to 1500m
200 to 500 ft
< 800m
< 200 ft
Symbols :   Thunderstorms  Fog  Heavy snow  Heavy precipitations  Wind > 20 kt
SIGMETs :     Misc.  Thunderstorms  Icing  Turbulence  Mountain Waves  Volcanic Ashes







- Airport Elevation : 78 ft
- IATA code : LED


ULLI - Pulkovo

CURRENT METAR :
  • 190100Z 18005MPS 9999 BKN005 02/01 Q1008 R88/290050 NOSIG RMK OBST OBSC

EXPIRED METARs :
  • 190030Z 17004MPS 140V220 9999 BKN008 02/01 Q1008 R88/290050 NOSIG
  • 190000Z 18005MPS 9999 BKN007 02/01 Q1008 R88/290050 NOSIG RMK OBST OBSC
  • 182330Z 19006MPS 9999 BKN007 02/01 Q1008 R88/290050 NOSIG RMK OBST OBSC
  • 182300Z 19006MPS 9999 FEW006 SCT016 02/01 Q1008 R88/290050 NOSIG RMK OBST OBSC
  • 182230Z 20007MPS 9999 FEW007 02/01 Q1008 R88/290050 NOSIG RMK OBST OBSC

TAF TAF ULLI
Valid from the 19 at 00:00 until the 20 at 00:00 UTC


182259Z 1900/1924 18006MPS 6000 BKN007
TEMPO 1900/1906 3100 -SHRASN BR BKN006 BKN015CB
BECMG 1906/1908 19006MPS
TEMPO 1906/1921 3100 -SHSNRA BKN006 BKN015CB
TEMPO 1921/1924 22003MPS 3100 -SHSNRA BKN005 BKN015CB
No reported NOTAMs for that airfield.



MET'MAP, your aeronautical weather chart ! - Copyright ORBIFLY December 2007 - Disclaimer

ORBIFLY MET'MAP TEAM :

Programming & Development : Alexandra Zaïnal
Concept & Development : Baudouin d'Aumeries
Co-Development & Prog : Marc-Olivier Méhu
Technical & hardware support : Manuel Goepfert

Contact : metmap@orbifly.com




SOURCES & CREDITS :

   NOAA